createdAt,value
2022-10-13T00:01:27.437Z,88.23
2022-10-13T00:03:56.632Z,87.98
2022-10-13T00:06:26.272Z,87.93
2022-10-13T00:08:56.699Z,87.92
2022-10-13T00:11:28.318Z,88.15
2022-10-13T00:14:02.100Z,89.17
2022-10-13T00:16:31.799Z,89.31
2022-10-13T00:19:00.242Z,89.28
2022-10-13T00:21:28.720Z,89.18
2022-10-13T00:23:58.148Z,89.12
2022-10-13T00:26:26.699Z,89.01
2022-10-13T00:28:55.808Z,88.86
2022-10-13T00:31:27.157Z,88.85
2022-10-13T00:33:56.085Z,88.85
2022-10-13T00:36:25.523Z,88.79
2022-10-13T00:38:53.954Z,88.64
2022-10-13T00:41:22.563Z,88.65
2022-10-13T00:44:03.613Z,88.76
2022-10-13T00:46:34.272Z,88.56
2022-10-13T00:49:08.574Z,88.73
2022-10-13T00:51:45.150Z,88.91
2022-10-13T00:54:17.465Z,88.82
2022-10-13T00:56:46.154Z,88.81
2022-10-13T00:59:23.060Z,88.81
2022-10-13T01:01:55.712Z,88.71
2022-10-13T01:04:28.938Z,88.82
2022-10-13T01:06:58.178Z,88.71
2022-10-13T01:09:27.098Z,88.69
2022-10-13T01:12:26.456Z,88.49
2022-10-13T01:15:13.334Z,88.58
2022-10-13T01:17:56.390Z,88.33
2022-10-13T01:20:49.092Z,88.40
2022-10-13T01:23:38.579Z,88.60
2022-10-13T01:26:25.816Z,88.78
2022-10-13T01:29:17.059Z,88.38
2022-10-13T01:31:54.724Z,88.34
2022-10-13T01:34:29.319Z,88.51
2022-10-13T01:36:58.117Z,88.64
2022-10-13T01:39:38.727Z,88.72
2022-10-13T01:42:17.701Z,88.58
2022-10-13T01:44:50.815Z,88.43
2022-10-13T01:47:21.274Z,88.33
2022-10-13T01:49:53.506Z,88.60
2022-10-13T01:52:26.603Z,88.42
2022-10-13T01:54:55.265Z,88.61
2022-10-13T01:57:37.234Z,88.85
2022-10-13T02:00:26.299Z,89.12
2022-10-13T02:03:11.629Z,89.56
2022-10-13T02:05:49.510Z,89.66
2022-10-13T02:08:23.948Z,89.42
2022-10-13T02:11:02.040Z,89.98
2022-10-13T02:13:33.404Z,90.05
2022-10-13T02:16:02.865Z,90.20
2022-10-13T02:18:33.787Z,89.89
2022-10-13T02:21:03.195Z,89.99
2022-10-13T02:23:32.381Z,89.50
2022-10-13T02:26:00.534Z,89.57
2022-10-13T02:28:29.990Z,89.60
2022-10-13T02:30:58.834Z,89.62
2022-10-13T02:33:27.613Z,89.95
2022-10-13T02:35:55.765Z,90.21
2022-10-13T02:38:23.685Z,90.54
2022-10-13T02:40:52.067Z,90.43
2022-10-13T02:43:22.159Z,90.60
2022-10-13T02:45:51.065Z,90.42
2022-10-13T02:48:19.437Z,90.36
2022-10-13T02:50:48.115Z,90.50
2022-10-13T02:53:16.312Z,90.42
2022-10-13T02:55:44.932Z,90.35
2022-10-13T02:58:13.950Z,90.27
2022-10-13T03:00:43.376Z,90.11
2022-10-13T03:03:11.850Z,90.06
2022-10-13T03:05:40.597Z,89.96
2022-10-13T03:08:08.502Z,89.85
2022-10-13T03:10:37.778Z,89.73
2022-10-13T03:13:06.395Z,89.69
2022-10-13T03:15:35.304Z,89.57
2022-10-13T03:18:04.015Z,89.63
2022-10-13T03:20:32.821Z,89.70
2022-10-13T03:23:01.417Z,89.77
2022-10-13T03:25:29.363Z,89.71
2022-10-13T03:27:58.528Z,89.65
2022-10-13T03:30:26.930Z,89.75
2022-10-13T03:33:05.309Z,89.69
2022-10-13T03:35:33.998Z,89.54
2022-10-13T03:38:01.590Z,89.40
2022-10-13T03:40:30.866Z,89.11
2022-10-13T03:42:58.781Z,88.90
2022-10-13T03:45:26.852Z,88.97
2022-10-13T03:47:55.140Z,88.57
2022-10-13T03:50:23.128Z,88.44
2022-10-13T03:52:50.770Z,88.44
2022-10-13T03:55:18.944Z,88.44
2022-10-13T03:57:47.122Z,88.49
2022-10-13T04:00:17.002Z,88.43
2022-10-13T04:02:44.865Z,88.52
2022-10-13T04:05:13.447Z,88.58
2022-10-13T04:07:41.147Z,88.62
2022-10-13T04:10:16.018Z,88.74
2022-10-13T04:12:44.842Z,89.01
2022-10-13T04:15:12.792Z,88.88
2022-10-13T04:17:42.041Z,88.79
2022-10-13T04:20:10.860Z,88.94
2022-10-13T04:22:39.378Z,88.86
2022-10-13T04:25:08.649Z,88.84
2022-10-13T04:27:39.243Z,88.97
2022-10-13T04:30:09.476Z,88.76
2022-10-13T04:32:40.320Z,88.95
2022-10-13T04:35:10.688Z,89.12
2022-10-13T04:37:42.775Z,89.64
2022-10-13T04:40:13.945Z,89.46
2022-10-13T04:42:42.522Z,89.40
2022-10-13T04:45:10.654Z,89.05
2022-10-13T04:47:40.936Z,89.00
2022-10-13T04:50:09.795Z,88.81
2022-10-13T04:52:37.993Z,88.71
2022-10-13T04:55:07.499Z,88.83
2022-10-13T04:57:36.351Z,88.81
2022-10-13T05:00:09.149Z,88.61
2022-10-13T05:02:38.413Z,89.04
2022-10-13T05:05:07.733Z,95.17
2022-10-13T05:07:36.744Z,94.67
2022-10-13T05:10:05.875Z,93.29
2022-10-13T05:12:33.703Z,92.92
2022-10-13T05:15:02.005Z,92.55
2022-10-13T05:17:35.285Z,89.60
2022-10-13T05:20:07.237Z,88.40
2022-10-13T05:22:35.283Z,92.03
2022-10-13T05:25:03.308Z,89.50
2022-10-13T05:27:31.950Z,88.87
2022-10-13T05:30:01.412Z,89.32
2022-10-13T05:32:39.384Z,89.58
2022-10-13T05:35:11.044Z,89.75
2022-10-13T05:37:41.579Z,89.85
2022-10-13T05:43:09.143Z,90.21
2022-10-13T05:45:39.618Z,90.57
2022-10-13T05:48:14.298Z,90.20
2022-10-13T05:50:44.642Z,90.96
2022-10-13T05:53:15.169Z,90.08
2022-10-13T05:55:44.607Z,90.06
2022-10-13T05:58:14.900Z,89.85
2022-10-13T06:00:44.449Z,89.81
2022-10-13T06:03:16.279Z,89.96
2022-10-13T06:05:47.639Z,89.79
2022-10-13T06:08:20.633Z,89.54
2022-10-13T06:10:53.368Z,89.41
2022-10-13T06:13:25.018Z,89.42
2022-10-13T06:16:14.778Z,89.09
2022-10-13T06:18:45.119Z,89.20
2022-10-13T06:21:14.209Z,88.57
2022-10-13T06:23:43.597Z,89.27
2022-10-13T06:26:12.372Z,89.06
2022-10-13T06:28:40.365Z,88.70
2022-10-13T06:31:08.846Z,88.54
2022-10-13T06:33:38.497Z,88.33
2022-10-13T06:36:07.613Z,88.28
2022-10-13T06:38:36.012Z,87.86
2022-10-13T06:41:04.827Z,87.72
2022-10-13T06:43:40.372Z,87.34
2022-10-13T06:46:11.935Z,86.94
2022-10-13T06:48:41.026Z,86.67
2022-10-13T06:51:12.248Z,86.36
2022-10-13T06:53:40.286Z,86.30
2022-10-13T06:56:08.773Z,84.95
2022-10-13T06:58:39.982Z,84.80
2022-10-13T07:01:40.554Z,84.98
2022-10-13T07:04:35.336Z,84.73
2022-10-13T07:07:03.879Z,84.42
2022-10-13T07:09:32.401Z,84.04
2022-10-13T07:12:02.400Z,83.32
2022-10-13T07:14:31.201Z,82.66
2022-10-13T07:17:03.498Z,82.99
2022-10-13T07:19:32.125Z,82.56
2022-10-13T07:22:02.140Z,81.70
2022-10-13T07:24:31.197Z,81.59
2022-10-13T07:27:06.762Z,81.35
2022-10-13T07:29:37.855Z,81.08
2022-10-13T07:32:09.301Z,81.16
2022-10-13T07:34:58.136Z,80.81
2022-10-13T07:38:14.499Z,80.95
2022-10-13T07:41:25.061Z,80.18
2022-10-13T07:44:08.623Z,80.12
2022-10-13T07:46:45.821Z,81.45
2022-10-13T07:51:01.110Z,80.16
2022-10-13T07:53:16.846Z,81.81
2022-10-13T07:56:22.481Z,84.59
2022-10-13T07:58:50.323Z,79.50
2022-10-13T08:01:18.921Z,79.67
2022-10-13T08:03:50.338Z,82.39
2022-10-13T08:06:21.022Z,81.04
2022-10-13T08:09:01.912Z,78.98
2022-10-13T08:11:32.769Z,80.12
2022-10-13T08:14:08.612Z,77.13
2022-10-13T08:16:51.450Z,73.36
2022-10-13T08:19:28.816Z,74.13
2022-10-13T08:22:00.102Z,75.36
2022-10-13T08:24:35.339Z,75.04
2022-10-13T08:27:05.462Z,74.81
2022-10-13T08:29:38.232Z,74.36
2022-10-13T08:32:11.887Z,73.11
2022-10-13T08:34:45.957Z,72.37
2022-10-13T08:37:18.055Z,70.60
2022-10-13T08:39:48.018Z,71.90
2022-10-13T08:42:23.469Z,69.62
2022-10-13T08:52:17.499Z,63.69
2022-10-13T08:54:48.234Z,63.19
2022-10-13T08:57:19.001Z,63.05
2022-10-13T08:59:52.370Z,62.57
2022-10-13T09:02:35.582Z,62.05
2022-10-13T09:05:11.563Z,59.62
2022-10-13T09:07:44.267Z,58.26
2022-10-13T09:10:16.472Z,58.03
2022-10-13T09:12:45.458Z,57.30
2022-10-13T09:15:14.560Z,56.80
2022-10-13T09:17:44.627Z,56.80
2022-10-13T09:20:22.687Z,55.95
2022-10-13T09:23:08.612Z,55.46
2022-10-13T09:25:42.310Z,54.78
2022-10-13T09:28:17.252Z,55.72
2022-10-13T09:34:40.266Z,55.21
2022-10-13T09:37:23.515Z,54.70
2022-10-13T09:40:21.806Z,53.46
2022-10-13T09:42:51.971Z,53.49
2022-10-13T09:45:23.259Z,53.45
2022-10-13T09:47:58.301Z,52.97
2022-10-13T09:50:28.203Z,52.40
2022-10-13T09:53:14.772Z,51.92
2022-10-13T09:55:48.574Z,51.96
2022-10-13T09:58:26.516Z,51.20
2022-10-13T10:04:13.293Z,51.81
2022-10-13T10:06:46.819Z,51.45
2022-10-13T10:09:16.313Z,50.13
2022-10-13T10:12:12.310Z,49.29
2022-10-13T10:15:02.992Z,51.85
2022-10-13T10:25:29.592Z,48.69
2022-10-13T10:28:37.743Z,48.06
2022-10-13T10:31:52.441Z,47.46
2022-10-13T10:34:54.552Z,47.58
2022-10-13T10:37:51.673Z,47.16
2022-10-13T10:40:29.432Z,47.47
2022-10-13T10:43:55.931Z,46.39
2022-10-13T10:46:34.922Z,46.55
2022-10-13T10:49:50.269Z,46.94
2022-10-13T10:52:57.922Z,46.33
2022-10-13T10:56:56.198Z,46.60
2022-10-13T11:00:12.476Z,45.87
2022-10-13T11:03:06.624Z,45.44
2022-10-13T11:09:12.365Z,44.73
2022-10-13T11:11:44.008Z,44.00
2022-10-13T11:14:24.210Z,43.61
2022-10-13T11:17:15.408Z,44.52
2022-10-13T11:20:01.831Z,43.87
2022-10-13T11:22:31.738Z,43.63
2022-10-13T11:25:04.229Z,43.59
2022-10-13T11:27:36.666Z,43.78
2022-10-13T11:30:44.067Z,43.64
2022-10-13T11:33:33.960Z,43.77
2022-10-13T11:36:41.487Z,43.47
2022-10-13T11:42:25.056Z,43.21
2022-10-13T11:48:41.830Z,42.66
2022-10-13T11:51:43.095Z,43.12
2022-10-13T11:54:38.830Z,42.93
2022-10-13T11:57:24.765Z,43.58
2022-10-13T11:59:58.037Z,43.09
2022-10-13T12:02:31.899Z,44.05
2022-10-13T12:05:24.643Z,43.69
2022-10-13T12:07:55.699Z,43.57
2022-10-13T12:10:40.339Z,43.25
2022-10-13T12:13:25.153Z,43.15
2022-10-13T12:16:09.382Z,43.33
2022-10-13T12:19:10.793Z,42.75
2022-10-13T12:21:54.651Z,42.27
2022-10-13T12:24:27.919Z,42.10
2022-10-13T12:27:13.154Z,42.68
2022-10-13T12:29:45.728Z,42.64
2022-10-13T12:32:29.874Z,42.52
2022-10-13T12:35:16.826Z,42.68
2022-10-13T12:37:47.653Z,42.63
2022-10-13T12:40:18.257Z,43.10
2022-10-13T12:42:51.059Z,44.03
2022-10-13T12:45:25.388Z,44.02
2022-10-13T12:47:54.858Z,43.48
2022-10-13T12:50:32.271Z,43.38
2022-10-13T12:53:19.542Z,43.42
2022-10-13T12:56:00.636Z,43.41
2022-10-13T12:58:36.816Z,43.48
2022-10-13T13:01:16.167Z,43.43
2022-10-13T13:03:54.963Z,44.07
2022-10-13T13:06:31.678Z,44.23
2022-10-13T13:09:30.466Z,44.33
2022-10-13T13:12:07.810Z,44.18
2022-10-13T13:14:39.964Z,44.17
2022-10-13T13:17:45.347Z,44.00
2022-10-13T13:20:38.812Z,44.01
2022-10-13T13:23:09.149Z,44.31
2022-10-13T13:25:44.389Z,44.12
2022-10-13T13:28:15.279Z,43.50
2022-10-13T13:30:45.207Z,43.23
2022-10-13T13:33:13.482Z,43.25
2022-10-13T13:35:42.749Z,43.80
2022-10-13T13:38:11.601Z,44.19
2022-10-13T13:40:39.298Z,44.04
2022-10-13T13:43:08.508Z,44.17
2022-10-13T13:45:37.779Z,44.20
2022-10-13T13:48:11.078Z,44.58
2022-10-13T13:50:40.106Z,44.80
2022-10-13T13:53:10.975Z,44.93
2022-10-13T13:55:40.159Z,45.15
2022-10-13T13:58:11.389Z,45.23
2022-10-13T14:00:39.397Z,45.33
2022-10-13T14:03:09.961Z,45.64
2022-10-13T14:05:41.671Z,45.76
2022-10-13T14:08:11.643Z,45.78
2022-10-13T14:10:40.820Z,45.93
2022-10-13T14:13:08.558Z,45.82
2022-10-13T14:15:36.959Z,45.78
2022-10-13T14:18:04.778Z,46.12
2022-10-13T14:20:33.473Z,46.27
2022-10-13T14:23:01.703Z,46.91
2022-10-13T14:25:29.285Z,47.26
2022-10-13T14:27:58.474Z,47.69
2022-10-13T14:30:29.217Z,47.70
2022-10-13T14:32:57.427Z,48.20
2022-10-13T14:35:26.533Z,48.42
2022-10-13T14:37:54.581Z,48.63
2022-10-13T14:40:23.702Z,48.74
2022-10-13T14:42:51.311Z,48.99
2022-10-13T14:45:19.268Z,49.11
2022-10-13T14:47:47.657Z,49.24
2022-10-13T14:50:16.969Z,49.49
2022-10-13T14:52:46.354Z,49.79
2022-10-13T14:55:14.027Z,50.17
2022-10-13T14:57:44.796Z,50.61
2022-10-13T15:00:14.549Z,50.92
2022-10-13T15:02:42.669Z,51.32
2022-10-13T15:05:10.481Z,51.69
2022-10-13T15:07:41.130Z,51.95
2022-10-13T15:10:09.872Z,52.21
2022-10-13T15:12:37.525Z,52.52
2022-10-13T15:15:06.012Z,52.78
2022-10-13T15:17:33.959Z,52.98
2022-10-13T15:20:01.566Z,53.23
2022-10-13T15:22:31.336Z,53.47
2022-10-13T15:24:58.889Z,53.75
2022-10-13T15:27:26.889Z,54.03
2022-10-13T15:29:55.006Z,55.24
2022-10-13T15:32:22.906Z,56.33
2022-10-13T15:34:52.118Z,57.29
2022-10-13T15:37:20.133Z,57.70
2022-10-13T15:39:50.984Z,58.08
2022-10-13T15:42:21.312Z,58.46
2022-10-13T15:47:38.260Z,59.15
2022-10-13T15:50:07.072Z,59.29
2022-10-13T15:52:40.469Z,59.77
2022-10-13T15:55:10.431Z,60.26
2022-10-13T15:57:38.826Z,60.50
2022-10-13T16:00:08.627Z,60.62
2022-10-13T16:02:41.826Z,60.70
2022-10-13T16:05:13.711Z,60.76
2022-10-13T16:07:42.234Z,61.05
2022-10-13T16:10:12.740Z,61.21
2022-10-13T16:12:44.410Z,61.69
2022-10-13T16:15:21.009Z,62.32
2022-10-13T16:17:51.878Z,62.45
2022-10-13T16:20:26.959Z,62.88
2022-10-13T16:22:55.026Z,63.80
2022-10-13T16:25:23.466Z,64.29
2022-10-13T16:27:52.003Z,64.57
2022-10-13T16:30:20.075Z,65.04
2022-10-13T16:32:48.525Z,65.18
2022-10-13T16:35:16.783Z,65.48
2022-10-13T16:37:44.445Z,65.72
2022-10-13T16:40:12.940Z,66.83
2022-10-13T16:42:41.849Z,66.73
2022-10-13T16:45:09.858Z,67.28
2022-10-13T16:47:38.247Z,67.67
2022-10-13T16:50:09.718Z,67.87
2022-10-13T16:52:38.538Z,68.00
2022-10-13T16:55:06.747Z,68.11
2022-10-13T16:57:34.573Z,68.80
2022-10-13T17:00:02.587Z,69.05
2022-10-13T17:02:30.357Z,69.64
2022-10-13T17:04:57.950Z,70.46
2022-10-13T17:07:26.455Z,70.50
2022-10-13T17:09:54.768Z,70.49
2022-10-13T17:12:22.439Z,70.71
2022-10-13T17:14:50.306Z,71.03
2022-10-13T17:17:18.136Z,71.26
2022-10-13T17:19:46.245Z,71.41
2022-10-13T17:22:14.180Z,71.27
2022-10-13T17:24:48.014Z,71.12
2022-10-13T17:27:16.612Z,71.50
2022-10-13T17:29:45.726Z,72.66
2022-10-13T17:32:13.439Z,72.39
2022-10-13T17:34:41.362Z,72.38
2022-10-13T17:37:09.878Z,72.06
2022-10-13T17:39:39.439Z,72.27
2022-10-13T17:42:08.062Z,73.08
2022-10-13T17:44:35.617Z,72.90
2022-10-13T17:47:03.219Z,73.89
2022-10-13T17:49:31.189Z,75.39
2022-10-13T17:51:59.887Z,75.80
2022-10-13T17:54:27.620Z,75.24
2022-10-13T17:56:59.137Z,74.72
2022-10-13T17:59:27.677Z,75.46
2022-10-13T18:01:56.075Z,75.07
2022-10-13T18:04:24.091Z,75.38
2022-10-13T18:06:52.165Z,75.88
2022-10-13T18:09:21.304Z,75.47
2022-10-13T18:11:51.148Z,75.12
2022-10-13T18:14:24.377Z,75.24
2022-10-13T18:16:53.179Z,76.12
2022-10-13T18:19:22.189Z,76.71
2022-10-13T18:21:52.925Z,76.88
2022-10-13T18:24:21.597Z,76.79
2022-10-13T18:26:49.237Z,77.02
2022-10-13T18:29:17.479Z,77.50
2022-10-13T18:31:45.424Z,77.86
2022-10-13T18:34:16.029Z,77.28
2022-10-13T18:36:48.152Z,77.13
2022-10-13T18:39:19.733Z,76.98
2022-10-13T18:41:49.683Z,77.05
2022-10-13T18:44:18.220Z,78.39
2022-10-13T18:46:50.419Z,79.22
2022-10-13T18:49:20.647Z,78.88
2022-10-13T18:51:50.667Z,78.35
2022-10-13T18:54:18.978Z,78.22
2022-10-13T18:56:46.733Z,78.20
2022-10-13T18:59:15.121Z,80.17
2022-10-13T19:01:44.415Z,80.60
2022-10-13T19:04:14.762Z,80.09
2022-10-13T19:06:43.139Z,79.56
2022-10-13T19:09:13.395Z,79.38
2022-10-13T19:11:41.840Z,79.37
2022-10-13T19:14:12.543Z,80.07
2022-10-13T19:16:43.641Z,80.29
2022-10-13T19:19:12.632Z,80.08
2022-10-13T19:21:41.221Z,80.47
2022-10-13T19:24:22.604Z,80.57
2022-10-13T19:26:50.944Z,80.24
2022-10-13T19:29:18.999Z,80.00
2022-10-13T19:31:46.661Z,80.12
2022-10-13T19:34:15.613Z,79.92
2022-10-13T19:36:46.341Z,80.05
2022-10-13T19:39:20.762Z,79.99
2022-10-13T19:41:49.472Z,79.84
2022-10-13T19:44:19.530Z,80.11
2022-10-13T19:46:55.146Z,80.01
2022-10-13T19:49:26.684Z,79.58
2022-10-13T19:51:54.902Z,79.71
2022-10-13T19:54:23.050Z,79.50
2022-10-13T19:56:51.805Z,79.27
2022-10-13T19:59:19.986Z,79.27
2022-10-13T20:01:48.247Z,78.95
2022-10-13T20:04:19.331Z,79.16
2022-10-13T20:06:48.719Z,79.55
2022-10-13T20:09:17.410Z,78.91
2022-10-13T20:11:46.930Z,78.74
2022-10-13T20:14:15.551Z,78.86
2022-10-13T20:16:43.499Z,79.35
2022-10-13T20:19:16.601Z,79.54
2022-10-13T20:21:48.033Z,79.70
2022-10-13T20:24:15.981Z,79.42
2022-10-13T20:26:44.126Z,79.56
2022-10-13T20:29:12.786Z,79.97
2022-10-13T20:31:41.121Z,80.24
2022-10-13T20:34:10.587Z,80.77
2022-10-13T20:36:39.510Z,80.28
2022-10-13T20:39:09.037Z,80.43
2022-10-13T20:41:36.858Z,80.75
2022-10-13T20:44:04.942Z,80.46
2022-10-13T20:46:34.278Z,80.31
2022-10-13T20:49:12.610Z,80.33
2022-10-13T20:51:42.135Z,80.54
2022-10-13T20:54:11.629Z,80.55
2022-10-13T20:56:39.495Z,80.60
2022-10-13T20:59:12.203Z,80.61
2022-10-13T21:01:39.867Z,81.41
2022-10-13T21:04:08.100Z,81.86
2022-10-13T21:06:39.173Z,82.10
2022-10-13T21:09:07.174Z,82.48
2022-10-13T21:11:35.093Z,82.79
2022-10-13T21:14:07.046Z,82.94
2022-10-13T21:16:35.506Z,82.83
2022-10-13T21:19:07.221Z,82.55
2022-10-13T21:21:36.635Z,81.92
2022-10-13T21:24:06.598Z,81.87
2022-10-13T21:26:34.755Z,81.48
2022-10-13T21:29:05.056Z,81.66
2022-10-13T21:31:34.634Z,82.91
2022-10-13T21:34:02.511Z,84.00
2022-10-13T21:36:31.875Z,82.97
2022-10-13T21:39:02.288Z,82.61
2022-10-13T21:41:31.684Z,82.76
2022-10-13T21:43:59.733Z,82.08
2022-10-13T21:46:32.379Z,82.56
2022-10-13T21:49:03.917Z,82.26
2022-10-13T21:51:39.174Z,82.85
2022-10-13T21:54:11.922Z,82.88
2022-10-13T21:56:40.273Z,82.99
2022-10-13T21:59:08.412Z,82.80
2022-10-13T22:01:36.303Z,82.77
2022-10-13T22:04:12.720Z,82.77
2022-10-13T22:06:40.716Z,82.85
2022-10-13T22:09:09.138Z,83.11
2022-10-13T22:11:39.135Z,83.17
2022-10-13T22:14:12.333Z,83.20
2022-10-13T22:16:43.542Z,83.15
2022-10-13T22:19:11.740Z,83.01
2022-10-13T22:21:42.983Z,83.58
2022-10-13T22:24:17.213Z,83.51
2022-10-13T22:26:46.899Z,83.73
2022-10-13T22:29:19.854Z,84.34
2022-10-13T22:31:48.224Z,84.38
2022-10-13T22:34:19.681Z,84.79
2022-10-13T22:36:48.153Z,85.06
2022-10-13T22:39:16.179Z,84.66
2022-10-13T22:41:44.222Z,84.16
2022-10-13T22:44:12.139Z,84.18
2022-10-13T22:46:40.559Z,84.24
2022-10-13T22:49:13.622Z,84.59
2022-10-13T22:51:41.671Z,85.17
2022-10-13T22:54:10.144Z,85.61
2022-10-13T22:56:37.853Z,85.65
2022-10-13T22:59:08.150Z,85.37
2022-10-13T23:01:36.269Z,85.03
2022-10-13T23:04:04.921Z,84.80
2022-10-13T23:06:33.974Z,84.98
2022-10-13T23:09:04.926Z,84.85
2022-10-13T23:11:33.257Z,84.57
2022-10-13T23:14:01.529Z,84.85
2022-10-13T23:16:29.446Z,84.94
2022-10-13T23:18:57.718Z,84.84
2022-10-13T23:21:28.452Z,84.58
2022-10-13T23:24:01.532Z,84.55
2022-10-13T23:26:30.239Z,84.54
2022-10-13T23:28:58.556Z,84.52
2022-10-13T23:31:28.078Z,84.44
2022-10-13T23:33:56.494Z,84.71
2022-10-13T23:36:28.004Z,84.88
2022-10-13T23:39:06.353Z,84.89
2022-10-13T23:41:34.734Z,84.78
2022-10-13T23:44:02.617Z,84.91
2022-10-13T23:46:30.635Z,85.11
2022-10-13T23:48:58.210Z,85.56
2022-10-13T23:51:26.863Z,85.68
2022-10-13T23:53:55.287Z,85.80
2022-10-13T23:56:23.316Z,86.14
2022-10-13T23:58:53.182Z,86.33
